Allport, Arkansas
Current Conditions -  °F | °C
As of 3:35 AM on Friday 24 Oct 2014 (Local Time) from KSGT Reporting Station
Clear Clear  
Wind Chill:   Ceiling: Unl
Heat Index:   Visibility: 5mi
Dew Point:   Wind: 3mph
Humidity: 87%   Direction: 320°NW
Pressure: 30.15"   Gusts: NA
Location:  34.5894°N, 91.9107°W
Report Text: KSGT 240835Z AUTO 32003KT 5SM CLR 09/07 A3015 RMK AO1
Loading
Personal Weather Stations






























Interactive Weather Map
Tropical Storm Tracking
New forecast layout! Learn more

10-Day Weather Forecast

Advertisements
Track Severe Weather on mobile